Time;durP1;ratioP1;P1;durP2;ratioP2;P2;SDS_P1;SDS_P2;PMS_P1;PMS_P2;Temp;Humidity;BMP_temperature;BMP_pressure;BME280_temperature;BME280_humidity;BME280_pressure;Samples;Min_cycle;Max_cycle;Signal;HPM_P1;HPM_P2
2022/04/26 03:36:33;;;;;;;17.40;11.80;;;;;;;;;;5056535;28;20178;-69
2022/04/26 03:38:59;;;;;;;12.57;9.23;;;;;;;;;;5055724;28;20190;-69
2022/04/26 03:41:25;;;;;;;13.73;9.57;;;;;;;;;;5038468;28;20221;-68
2022/04/26 03:43:51;;;;;;;14.37;10.17;;;;;;;;;;5055630;28;20288;-68
2022/04/26 03:46:17;;;;;;;11.57;8.67;;;;;;;;;;5055835;28;20175;-68
2022/04/26 03:48:43;;;;;;;11.23;9.07;;;;;;;;;;5055719;28;20174;-68
2022/04/26 03:51:09;;;;;;;12.27;8.90;;;;;;;;;;5037923;28;20247;-68
2022/04/26 03:53:35;;;;;;;11.67;8.70;;;;;;;;;;5055980;28;20636;-69
2022/04/26 03:56:01;;;;;;;11.90;8.53;;;;;;;;;;5055702;28;20556;-68
2022/04/26 03:58:28;;;;;;;15.07;9.43;;;;;;;;;;5055822;28;20179;-68
2022/04/26 04:00:54;;;;;;;13.03;8.73;;;;;;;;;;5037644;28;20206;-68
2022/04/26 04:03:20;;;;;;;12.00;8.40;;;;;;;;;;5055312;28;20204;-68
2022/04/26 04:05:46;;;;;;;10.50;8.37;;;;;;;;;;5055737;28;20171;-68
2022/04/26 04:08:12;;;;;;;13.70;8.73;;;;;;;;;;5055475;28;20228;-68
2022/04/26 04:10:38;;;;;;;14.63;8.30;;;;;;;;;;5037334;28;20198;-68
2022/04/26 04:13:04;;;;;;;15.10;8.73;;;;;;;;;;5055291;28;20214;-68
2022/04/26 04:15:30;;;;;;;10.97;8.80;;;;;;;;;;5055318;28;20183;-68
2022/04/26 04:17:56;;;;;;;12.03;8.77;;;;;;;;;;5037754;28;20185;-68
2022/04/26 04:20:22;;;;;;;12.20;8.27;;;;;;;;;;5037439;28;20203;-68
2022/04/26 04:22:48;;;;;;;11.13;8.40;;;;;;;;;;5056146;28;20205;-68
2022/04/26 04:25:15;;;;;;;11.07;8.03;;;;;;;;;;5055819;28;20185;-68
2022/04/26 04:27:41;;;;;;;11.63;9.13;;;;;;;;;;5055754;28;20173;-68
2022/04/26 04:30:08;;;;;;;11.67;8.30;;;;;;;;;;5054838;28;20214;-68
2022/04/26 04:32:34;;;;;;;11.17;8.87;;;;;;;;;;5037024;28;20214;-68
2022/04/26 04:35:00;;;;;;;12.33;8.80;;;;;;;;;;5037073;28;20220;-69
2022/04/26 04:37:26;;;;;;;12.77;8.17;;;;;;;;;;5055364;28;20178;-68
2022/04/26 04:39:52;;;;;;;16.10;8.83;;;;;;;;;;5055147;28;20666;-67
2022/04/26 04:42:19;;;;;;;11.80;8.33;;;;;;;;;;5054669;28;20202;-68
2022/04/26 04:44:45;;;;;;;12.77;9.57;;;;;;;;;;5037475;28;20597;-68
2022/04/26 04:47:11;;;;;;;10.07;8.20;;;;;;;;;;5037261;28;20175;-68
2022/04/26 04:49:37;;;;;;;13.33;8.97;;;;;;;;;;5055133;28;20301;-68
2022/04/26 04:52:03;;;;;;;11.80;9.43;;;;;;;;;;5056586;28;20220;-68
2022/04/26 04:54:29;;;;;;;14.60;9.23;;;;;;;;;;5042839;28;20187;-68
2022/04/26 04:56:55;;;;;;;11.23;8.47;;;;;;;;;;5062234;28;20521;-67
2022/04/26 04:59:21;;;;;;;10.80;8.80;;;;;;;;;;5045777;28;20181;-67
2022/04/26 05:01:47;;;;;;;12.53;9.57;;;;;;;;;;5046453;28;20244;-68
2022/04/26 05:04:13;;;;;;;10.00;8.43;;;;;;;;;;5061707;28;20550;-68
2022/04/26 05:06:39;;;;;;;11.10;8.60;;;;;;;;;;5056867;28;20187;-67
2022/04/26 05:09:05;;;;;;;11.33;8.90;;;;;;;;;;5055407;28;20224;-68
2022/04/26 05:11:31;;;;;;;11.53;8.93;;;;;;;;;;5055155;28;20701;-67
2022/04/26 05:13:57;;;;;;;12.77;9.27;;;;;;;;;;5037070;28;20554;-68
2022/04/26 05:16:23;;;;;;;12.63;8.80;;;;;;;;;;5036668;28;20660;-67
2022/04/26 05:18:48;;;;;;;11.33;8.50;;;;;;;;;;5054584;28;20186;-67
2022/04/26 05:21:15;;;;;;;11.93;8.40;;;;;;;;;;5054777;28;20693;-67
2022/04/26 05:26:26;;;;;;;13.67;9.73;;;;;;;;;;5054464;28;20170;-67
2022/04/26 05:28:52;;;;;;;11.93;9.00;;;;;;;;;;5053902;28;20553;-67
2022/04/26 05:31:18;;;;;;;15.63;10.20;;;;;;;;;;5036160;28;20237;-67
2022/04/26 05:33:44;;;;;;;17.53;9.77;;;;;;;;;;5054283;28;20631;-67
2022/04/26 05:36:10;;;;;;;23.63;12.43;;;;;;;;;;5053923;28;20209;-67
2022/04/26 05:38:36;;;;;;;21.07;12.97;;;;;;;;;;5054168;28;20562;-66
2022/04/26 05:41:02;;;;;;;14.23;9.57;;;;;;;;;;5036116;28;20289;-67
2022/04/26 05:43:28;;;;;;;16.17;10.60;;;;;;;;;;5054197;28;20281;-67
2022/04/26 05:45:54;;;;;;;12.77;9.17;;;;;;;;;;5035857;28;20213;-67
2022/04/26 05:48:20;;;;;;;13.70;9.30;;;;;;;;;;5036180;28;20175;-67
2022/04/26 05:50:46;;;;;;;15.80;9.50;;;;;;;;;;5053974;28;20198;-67
2022/04/26 05:53:12;;;;;;;11.13;8.83;;;;;;;;;;5054399;28;20288;-67
2022/04/26 05:55:41;;;;;;;14.93;9.40;;;;;;;;;;5054234;28;20183;-67
2022/04/26 05:58:07;;;;;;;14.03;8.90;;;;;;;;;;5053950;28;20212;-67
2022/04/26 06:00:33;;;;;;;11.87;7.93;;;;;;;;;;5035862;28;20212;-67
2022/04/26 06:02:58;;;;;;;11.23;8.80;;;;;;;;;;5035953;28;20293;-66
2022/04/26 06:05:24;;;;;;;13.07;8.43;;;;;;;;;;5054248;28;20178;-67
2022/04/26 06:07:50;;;;;;;11.97;8.37;;;;;;;;;;5054329;28;20210;-67
2022/04/26 06:10:16;;;;;;;14.03;8.93;;;;;;;;;;5054383;28;20205;-67
2022/04/26 06:12:44;;;;;;;15.80;9.53;;;;;;;;;;5061013;28;20182;-67
2022/04/26 06:15:10;;;;;;;13.33;9.57;;;;;;;;;;5070157;28;20174;-67
2022/04/26 06:17:36;;;;;;;17.00;9.73;;;;;;;;;;5072209;28;20165;-67
2022/04/26 06:20:03;;;;;;;11.53;7.53;;;;;;;;;;5072052;28;20218;-67
2022/04/26 06:22:29;;;;;;;15.20;9.13;;;;;;;;;;5061936;28;20219;-67
2022/04/26 06:24:55;;;;;;;13.07;9.10;;;;;;;;;;5055372;28;20197;-67
2022/04/26 06:27:21;;;;;;;12.83;8.03;;;;;;;;;;5054433;28;20244;-67
2022/04/26 06:29:47;;;;;;;12.83;9.10;;;;;;;;;;5035915;28;20686;-67
2022/04/26 06:32:13;;;;;;;15.57;9.53;;;;;;;;;;5037173;28;20170;-67
2022/04/26 06:34:39;;;;;;;11.20;8.70;;;;;;;;;;5054221;28;20546;-67
2022/04/26 06:37:05;;;;;;;15.83;8.97;;;;;;;;;;5036009;28;20182;-66
2022/04/26 06:39:31;;;;;;;13.17;9.13;;;;;;;;;;5036085;28;20191;-68
2022/04/26 06:41:57;;;;;;;12.17;8.73;;;;;;;;;;5053805;28;20185;-67
2022/04/26 06:44:24;;;;;;;10.97;8.33;;;;;;;;;;5036024;28;20340;-67
2022/04/26 06:46:50;;;;;;;13.00;9.30;;;;;;;;;;5053631;28;20174;-67
2022/04/26 06:49:16;;;;;;;11.87;8.80;;;;;;;;;;5053174;28;20181;-67
2022/04/26 06:51:44;;;;;;;10.90;8.27;;;;;;;;;;5053390;28;20265;-66
2022/04/26 06:54:09;;;;;;;12.37;8.77;;;;;;;;;;5037457;28;20190;-67
2022/04/26 06:56:35;;;;;;;12.63;8.97;;;;;;;;;;5057353;28;20602;-67
2022/04/26 06:59:01;;;;;;;12.60;8.00;;;;;;;;;;5039577;28;20190;-66
2022/04/26 07:01:27;;;;;;;11.53;8.70;;;;;;;;;;5057501;28;20206;-66
2022/04/26 07:03:53;;;;;;;17.00;8.73;;;;;;;;;;5039352;28;20202;-64
2022/04/26 07:06:19;;;;;;;13.67;9.40;;;;;;;;;;5057078;28;20175;-67
2022/04/26 07:08:46;;;;;;;15.20;8.57;;;;;;;;;;5039354;28;20175;-66
2022/04/26 07:11:14;;;;;;;12.07;8.17;;;;;;;;;;5056745;28;20251;-65
2022/04/26 07:13:40;;;;;;;12.23;8.17;;;;;;;;;;5039246;28;20183;-65
2022/04/26 07:16:06;;;;;;;12.83;8.50;;;;;;;;;;5039398;28;20197;-65
2022/04/26 07:18:33;;;;;;;12.97;9.53;;;;;;;;;;5056998;28;20174;-66
2022/04/26 07:20:59;;;;;;;12.70;9.47;;;;;;;;;;5038722;28;20614;-65
2022/04/26 07:23:25;;;;;;;11.93;10.07;;;;;;;;;;5056975;28;20198;-65
2022/04/26 07:25:57;;;;;;;12.73;9.70;;;;;;;;;;5039049;28;20175;-66
2022/04/26 07:28:24;;;;;;;11.67;9.17;;;;;;;;;;5039054;28;20202;-65
2022/04/26 07:30:50;;;;;;;10.93;9.27;;;;;;;;;;5056725;28;20685;-66
2022/04/26 07:36:00;;;;;;;11.37;8.93;;;;;;;;;;5056847;28;20220;-66
2022/04/26 07:38:26;;;;;;;15.10;10.50;;;;;;;;;;5057179;28;20178;-65
2022/04/26 07:40:52;;;;;;;13.10;10.07;;;;;;;;;;5038671;28;20202;-64
2022/04/26 07:43:18;;;;;;;12.40;10.13;;;;;;;;;;5038836;28;20206;-66
2022/04/26 07:45:45;;;;;;;13.67;10.33;;;;;;;;;;5056884;28;20634;-65
2022/04/26 07:48:12;;;;;;;12.03;10.33;;;;;;;;;;5056902;28;20170;-65
2022/04/26 07:50:38;;;;;;;11.70;9.80;;;;;;;;;;5038598;28;20202;-65
2022/04/26 07:53:05;;;;;;;18.97;11.53;;;;;;;;;;5056520;28;20175;-66
2022/04/26 07:55:32;;;;;;;12.20;10.27;;;;;;;;;;5057045;28;20248;-65
2022/04/26 07:57:58;;;;;;;16.77;12.07;;;;;;;;;;5038630;28;20209;-65
2022/04/26 08:00:24;;;;;;;17.93;13.30;;;;;;;;;;5038507;28;20297;-65
2022/04/26 08:02:50;;;;;;;18.30;14.23;;;;;;;;;;5056441;28;20198;-65
2022/04/26 08:05:16;;;;;;;19.47;14.63;;;;;;;;;;5056671;28;20248;-65
2022/04/26 08:07:42;;;;;;;21.33;15.70;;;;;;;;;;5056710;28;20638;-65
2022/04/26 08:10:12;;;;;;;22.80;17.03;;;;;;;;;;5056142;28;20248;-65
2022/04/26 08:12:38;;;;;;;24.40;19.07;;;;;;;;;;5038272;28;20214;-65
2022/04/26 08:15:04;;;;;;;27.70;19.87;;;;;;;;;;5056250;28;20174;-66
2022/04/26 08:17:30;;;;;;;24.57;19.03;;;;;;;;;;5037996;28;20189;-66
2022/04/26 08:19:56;;;;;;;23.93;19.67;;;;;;;;;;5037498;28;20198;-65
2022/04/26 08:22:22;;;;;;;26.17;20.13;;;;;;;;;;5055467;28;20199;-65
2022/04/26 08:27:33;;;;;;;22.70;19.33;;;;;;;;;;5056711;28;20169;-66
2022/04/26 08:30:00;;;;;;;22.23;18.07;;;;;;;;;;5055919;28;20611;-65
2022/04/26 08:32:29;;;;;;;26.17;18.97;;;;;;;;;;5037581;28;20178;-65
2022/04/26 08:34:55;;;;;;;23.90;17.77;;;;;;;;;;5037374;28;20186;-65
2022/04/26 08:37:23;;;;;;;24.30;18.67;;;;;;;;;;5037921;28;20182;-66
2022/04/26 08:39:52;;;;;;;22.93;17.37;;;;;;;;;;5055883;28;20352;-65
2022/04/26 08:42:33;;;;;;;24.57;17.73;;;;;;;;;;5055161;28;20195;-66
2022/04/26 08:44:59;;;;;;;23.43;17.87;;;;;;;;;;5079612;22;20697;-65
2022/04/26 08:52:56;;;;;;;22.73;15.17;;;;;;;;;;5054818;28;20657;-66
2022/04/26 08:55:22;;;;;;;20.80;15.70;;;;;;;;;;5036572;28;20194;-66
2022/04/26 08:57:48;;;;;;;21.07;15.57;;;;;;;;;;5036264;28;20187;-68
2022/04/26 09:00:14;;;;;;;17.50;15.17;;;;;;;;;;5054488;28;20179;-65
2022/04/26 09:02:40;;;;;;;18.37;13.60;;;;;;;;;;5054595;28;20213;-66
2022/04/26 09:05:13;;;;;;;15.60;13.00;;;;;;;;;;5054108;28;20663;-66
2022/04/26 09:07:40;;;;;;;18.80;14.13;;;;;;;;;;5037052;28;20507;-66
2022/04/26 09:10:07;;;;;;;15.17;12.90;;;;;;;;;;5054231;28;20538;-66
2022/04/26 09:12:53;;;;;;;15.87;11.90;;;;;;;;;;5053984;28;20209;-65
2022/04/26 09:15:19;;;;;;;16.50;12.53;;;;;;;;;;5036104;28;20233;-66
2022/04/26 09:17:45;;;;;;;15.83;13.03;;;;;;;;;;5035461;28;20179;-66
2022/04/26 09:20:11;;;;;;;15.23;11.87;;;;;;;;;;5053752;28;20716;-66
2022/04/26 09:22:39;;;;;;;19.87;11.57;;;;;;;;;;5054331;28;20243;-66
2022/04/26 09:25:06;;;;;;;13.93;10.97;;;;;;;;;;5053770;28;20226;-66
2022/04/26 09:27:41;;;;;;;11.00;9.80;;;;;;;;;;5035882;28;20190;-66
2022/04/26 09:30:11;;;;;;;10.87;9.13;;;;;;;;;;5054064;28;20158;-65
2022/04/26 09:32:47;;;;;;;13.30;10.43;;;;;;;;;;5053437;28;20262;-66
2022/04/26 09:35:32;;;;;;;14.10;10.63;;;;;;;;;;5053511;28;20264;-67
2022/04/26 09:37:59;;;;;;;12.10;10.00;;;;;;;;;;5054064;28;20611;-65
2022/04/26 09:40:28;;;;;;;12.27;9.73;;;;;;;;;;5035522;28;20218;-66
2022/04/26 09:42:54;;;;;;;15.50;10.80;;;;;;;;;;5035600;28;20689;-66
2022/04/26 09:45:20;;;;;;;13.43;10.57;;;;;;;;;;5053155;28;20690;-65
2022/04/26 09:47:47;;;;;;;12.87;10.40;;;;;;;;;;5053300;28;20178;-66
2022/04/26 09:50:14;;;;;;;11.47;9.87;;;;;;;;;;5053739;28;20507;-64
2022/04/26 09:52:40;;;;;;;14.23;10.27;;;;;;;;;;5053866;28;20228;-66
2022/04/26 09:55:07;;;;;;;12.40;10.60;;;;;;;;;;5053019;28;20285;-67
2022/04/26 09:57:33;;;;;;;11.63;10.43;;;;;;;;;;5053372;28;20232;-66
2022/04/26 10:00:00;;;;;;;13.17;10.13;;;;;;;;;;5053106;28;20269;-66
2022/04/26 10:02:30;;;;;;;13.47;10.23;;;;;;;;;;5053248;28;20682;-66
2022/04/26 10:04:59;;;;;;;13.40;10.70;;;;;;;;;;5035209;28;20198;-66
2022/04/26 10:07:26;;;;;;;16.10;11.10;;;;;;;;;;5035307;28;20179;-66
2022/04/26 10:09:54;;;;;;;14.37;10.17;;;;;;;;;;5053502;28;20185;-64
2022/04/26 10:12:20;;;;;;;10.63;9.53;;;;;;;;;;5035194;28;20181;-65
2022/04/26 10:14:46;;;;;;;12.93;10.17;;;;;;;;;;5052948;28;20255;-65
2022/04/26 10:17:14;;;;;;;11.43;9.83;;;;;;;;;;5053129;28;20208;-64
2022/04/26 10:19:46;;;;;;;11.33;9.57;;;;;;;;;;5053258;28;20174;-65
2022/04/26 10:22:15;;;;;;;13.27;9.57;;;;;;;;;;5053285;28;20228;-65
2022/04/26 10:24:41;;;;;;;13.33;9.70;;;;;;;;;;5053052;28;20273;-65
2022/04/26 10:27:25;;;;;;;13.03;10.90;;;;;;;;;;5052931;28;20235;-65
2022/04/26 10:29:51;;;;;;;12.60;10.13;;;;;;;;;;5039243;28;20176;-65
2022/04/26 10:32:29;;;;;;;15.43;9.93;;;;;;;;;;5039013;28;20700;-71
2022/04/26 10:34:56;;;;;;;14.57;9.93;;;;;;;;;;5056847;28;20194;-65
2022/04/26 10:37:22;;;;;;;13.67;9.93;;;;;;;;;;5039043;28;20190;-65
2022/04/26 10:39:59;;;;;;;10.47;8.13;;;;;;;;;;5056926;28;20221;-65
2022/04/26 10:42:27;;;;;;;13.43;9.43;;;;;;;;;;5056886;28;20193;-66
2022/04/26 10:44:57;;;;;;;11.20;9.20;;;;;;;;;;5056607;28;20210;-65
2022/04/26 10:47:24;;;;;;;15.57;9.70;;;;;;;;;;5057427;28;20179;-65
2022/04/26 10:49:51;;;;;;;9.73;8.73;;;;;;;;;;5056751;28;20181;-65
2022/04/26 10:52:24;;;;;;;13.63;9.73;;;;;;;;;;5057050;28;20645;-65
2022/04/26 10:54:58;;;;;;;12.63;9.20;;;;;;;;;;5056568;28;20194;-66
2022/04/26 10:57:31;;;;;;;10.20;8.87;;;;;;;;;;5056521;28;20163;-65
2022/04/26 11:00:15;;;;;;;10.37;8.70;;;;;;;;;;5056572;28;20174;-66
2022/04/26 11:02:43;;;;;;;14.57;9.67;;;;;;;;;;5038473;28;20621;-65
2022/04/26 11:05:10;;;;;;;11.00;9.63;;;;;;;;;;5056514;28;20550;-65
2022/04/26 11:07:36;;;;;;;9.90;8.87;;;;;;;;;;5056415;28;20183;-66
2022/04/26 11:10:04;;;;;;;12.50;8.47;;;;;;;;;;5056557;28;20202;-66
2022/04/26 11:12:32;;;;;;;9.70;8.20;;;;;;;;;;5038332;28;20276;-66
2022/04/26 11:15:00;;;;;;;10.57;8.90;;;;;;;;;;5056124;28;20194;-66
2022/04/26 11:17:27;;;;;;;9.83;8.70;;;;;;;;;;5056087;28;20187;-66
2022/04/26 11:19:54;;;;;;;11.80;8.77;;;;;;;;;;5056064;28;20175;-65
2022/04/26 11:22:21;;;;;;;14.10;8.73;;;;;;;;;;5055954;28;20209;-66
2022/04/26 11:30:29;;;;;;;14.27;8.93;;;;;;;;;;5056170;28;20669;-65
2022/04/26 11:33:02;;;;;;;14.37;8.70;;;;;;;;;;5056064;28;20175;-66
2022/04/26 11:35:29;;;;;;;11.17;8.50;;;;;;;;;;5037950;28;20210;-66
2022/04/26 11:37:56;;;;;;;11.57;8.53;;;;;;;;;;5055782;28;20205;-66
2022/04/26 11:40:37;;;;;;;11.47;8.37;;;;;;;;;;5054871;28;20179;-66
2022/04/26 11:43:07;;;;;;;9.53;8.47;;;;;;;;;;5037748;28;20282;-66
2022/04/26 11:45:34;;;;;;;12.37;9.30;;;;;;;;;;5055314;28;20218;-66
2022/04/26 11:48:00;;;;;;;9.83;8.73;;;;;;;;;;5055477;28;20560;-66
2022/04/26 11:50:27;;;;;;;9.27;7.60;;;;;;;;;;5055497;28;20250;-66
2022/04/26 11:52:59;;;;;;;11.63;7.43;;;;;;;;;;5056071;28;20174;-65
2022/04/26 11:55:26;;;;;;;9.80;7.77;;;;;;;;;;5037858;28;20701;-66
2022/04/26 11:57:52;;;;;;;8.80;7.63;;;;;;;;;;5055691;28;20680;-66
2022/04/26 12:00:22;;;;;;;8.67;7.60;;;;;;;;;;5055304;28;20182;-65
2022/04/26 12:02:49;;;;;;;8.67;7.20;;;;;;;;;;5055382;28;20704;-65
2022/04/26 12:05:16;;;;;;;10.27;7.57;;;;;;;;;;5037643;28;20544;-66
2022/04/26 12:07:42;;;;;;;9.63;7.30;;;;;;;;;;5055574;28;20608;-66
2022/04/26 12:10:27;;;;;;;9.70;7.90;;;;;;;;;;5055071;28;20209;-67
2022/04/26 12:12:54;;;;;;;9.93;7.67;;;;;;;;;;5055229;28;20200;-66
2022/04/26 12:15:24;;;;;;;7.70;6.80;;;;;;;;;;5055648;28;20202;-66
2022/04/26 12:18:02;;;;;;;8.87;7.40;;;;;;;;;;5037227;28;20217;-66
2022/04/26 12:20:28;;;;;;;7.60;6.80;;;;;;;;;;5055061;28;20245;-65
2022/04/26 12:22:54;;;;;;;12.07;7.20;;;;;;;;;;5054841;28;20706;-66
2022/04/26 12:25:20;;;;;;;8.30;7.03;;;;;;;;;;5054949;28;20240;-66
2022/04/26 12:28:01;;;;;;;8.93;6.57;;;;;;;;;;5037052;28;20170;-66
2022/04/26 12:30:29;;;;;;;9.30;7.47;;;;;;;;;;5055299;28;20158;-66
2022/04/26 12:32:55;;;;;;;10.20;6.70;;;;;;;;;;5055316;28;20190;-67
2022/04/26 12:35:21;;;;;;;7.93;7.13;;;;;;;;;;5036767;28;20194;-66
2022/04/26 12:37:48;;;;;;;8.67;6.47;;;;;;;;;;5054864;28;20186;-66
2022/04/26 12:40:17;;;;;;;7.43;6.67;;;;;;;;;;5036747;28;20651;-66
2022/04/26 12:42:45;;;;;;;9.60;7.17;;;;;;;;;;5054787;28;20206;-66
2022/04/26 12:45:23;;;;;;;8.37;6.90;;;;;;;;;;5054622;28;20210;-66
2022/04/26 12:50:53;;;;;;;8.40;6.50;;;;;;;;;;5054479;28;20162;-66
2022/04/26 12:53:28;;;;;;;8.13;6.17;;;;;;;;;;5054594;28;20189;-66
2022/04/26 12:55:54;;;;;;;6.93;6.23;;;;;;;;;;5054597;28;20180;-66
2022/04/26 12:58:35;;;;;;;7.77;6.60;;;;;;;;;;5036286;28;20187;-66
2022/04/26 13:01:01;;;;;;;9.77;6.57;;;;;;;;;;5054378;28;20159;-66
2022/04/26 13:03:27;;;;;;;10.87;7.20;;;;;;;;;;5036092;28;20202;-66
2022/04/26 13:06:04;;;;;;;7.83;6.63;;;;;;;;;;5054197;28;20174;-66
2022/04/26 13:08:30;;;;;;;7.27;6.47;;;;;;;;;;5054212;28;20250;-66
2022/04/26 13:10:56;;;;;;;6.90;6.20;;;;;;;;;;5054171;28;20203;-67
2022/04/26 13:13:21;;;;;;;6.93;6.23;;;;;;;;;;5035970;28;20561;-69
2022/04/26 13:15:47;;;;;;;7.20;6.23;;;;;;;;;;5036013;28;20182;-66
2022/04/26 13:18:15;;;;;;;7.30;6.60;;;;;;;;;;5053964;28;20598;-66
2022/04/26 13:20:43;;;;;;;8.20;6.43;;;;;;;;;;5035936;28;20182;-67
2022/04/26 13:23:09;;;;;;;6.70;6.00;;;;;;;;;;5053734;28;20198;-66
2022/04/26 13:25:35;;;;;;;11.07;6.53;;;;;;;;;;5053994;28;20224;-66
2022/04/26 13:28:05;;;;;;;7.33;6.20;;;;;;;;;;5035967;28;20646;-66
2022/04/26 13:30:31;;;;;;;7.90;6.47;;;;;;;;;;5053764;28;20263;-67
2022/04/26 13:32:56;;;;;;;7.23;6.20;;;;;;;;;;5054194;28;20230;-66
2022/04/26 13:35:24;;;;;;;8.50;6.53;;;;;;;;;;5035784;28;20201;-66
2022/04/26 13:37:52;;;;;;;8.20;6.73;;;;;;;;;;5053726;28;20178;-66
2022/04/26 13:40:18;;;;;;;7.50;6.40;;;;;;;;;;5036024;28;20186;-67
2022/04/26 13:42:44;;;;;;;7.93;6.40;;;;;;;;;;5054001;28;20559;-66
2022/04/26 13:45:10;;;;;;;7.03;5.57;;;;;;;;;;5053435;28;20221;-66
2022/04/26 13:47:37;;;;;;;7.63;5.90;;;;;;;;;;5035556;28;20182;-64
2022/04/26 13:50:05;;;;;;;6.33;5.43;;;;;;;;;;5053396;28;20213;-65
2022/04/26 13:52:31;;;;;;;8.33;6.03;;;;;;;;;;5035505;28;20182;-65
2022/04/26 13:54:57;;;;;;;8.13;6.00;;;;;;;;;;5035513;28;20259;-66
2022/04/26 13:57:24;;;;;;;9.30;8.40;;;;;;;;;;5053269;28;20178;-66
2022/04/26 13:59:49;;;;;;;7.90;6.23;;;;;;;;;;5053458;28;20170;-66
2022/04/26 14:02:16;;;;;;;6.13;5.43;;;;;;;;;;5035088;28;20187;-66
2022/04/26 14:04:43;;;;;;;7.57;6.10;;;;;;;;;;5053420;28;20212;-66
2022/04/26 14:07:09;;;;;;;8.37;5.73;;;;;;;;;;5053632;28;20171;-66
2022/04/26 14:09:35;;;;;;;7.33;5.70;;;;;;;;;;5053617;28;20181;-65
2022/04/26 14:12:02;;;;;;;6.00;5.40;;;;;;;;;;5035314;28;20201;-66
2022/04/26 14:22:43;;;;;;;7.60;6.00;;;;;;;;;;5053354;28;20262;-67
2022/04/26 14:25:10;;;;;;;8.47;5.03;;;;;;;;;;5035262;28;20198;-67
2022/04/26 14:27:36;;;;;;;6.10;5.50;;;;;;;;;;5053118;28;20657;-66
2022/04/26 14:30:04;;;;;;;6.83;4.87;;;;;;;;;;5053194;28;20182;-66
2022/04/26 14:32:30;;;;;;;5.57;5.07;;;;;;;;;;5035265;28;20186;-67
2022/04/26 14:34:56;;;;;;;6.20;5.60;;;;;;;;;;5053135;28;20344;-66
2022/04/26 14:37:22;;;;;;;7.10;5.00;;;;;;;;;;5053894;28;20174;-67
2022/04/26 14:39:49;;;;;;;6.93;5.30;;;;;;;;;;5036867;28;20186;-62
2022/04/26 14:42:15;;;;;;;6.03;5.43;;;;;;;;;;5052964;28;20182;-61
2022/04/26 14:44:41;;;;;;;5.77;5.17;;;;;;;;;;5052853;28;20210;-62
2022/04/26 14:47:07;;;;;;;6.87;5.43;;;;;;;;;;5053353;28;20186;-61
2022/04/26 14:49:34;;;;;;;6.23;5.20;;;;;;;;;;5053015;28;20651;-64
2022/04/26 14:52:00;;;;;;;5.13;4.60;;;;;;;;;;5052840;28;20229;-64
2022/04/26 14:54:26;;;;;;;6.83;5.17;;;;;;;;;;5052911;28;20209;-63
2022/04/26 14:56:52;;;;;;;5.90;5.30;;;;;;;;;;5034993;28;20296;-62
2022/04/26 14:59:19;;;;;;;6.10;5.13;;;;;;;;;;5053016;28;20189;-62
2022/04/26 15:01:48;;;;;;;6.73;4.87;;;;;;;;;;5035145;28;20225;-62
2022/04/26 15:04:14;;;;;;;6.67;4.70;;;;;;;;;;5053010;28;20206;-62
2022/04/26 15:06:40;;;;;;;6.87;5.20;;;;;;;;;;5053067;28;20525;-62
2022/04/26 15:17:19;;;;;;;6.03;5.00;;;;;;;;;;5056767;28;20239;-62
2022/04/26 15:19:48;;;;;;;6.10;4.80;;;;;;;;;;5056210;28;20643;-62
2022/04/26 15:22:17;;;;;;;6.43;5.07;;;;;;;;;;5056227;28;20178;-63
2022/04/26 15:24:43;;;;;;;4.90;4.23;;;;;;;;;;5056081;28;20191;-61
2022/04/26 15:27:08;;;;;;;5.27;4.70;;;;;;;;;;5056016;28;20198;-63
2022/04/26 15:29:34;;;;;;;5.10;4.60;;;;;;;;;;5056426;28;20228;-63
2022/04/26 15:32:00;;;;;;;6.77;5.07;;;;;;;;;;5038254;28;20179;-63
2022/04/26 15:34:26;;;;;;;5.00;4.50;;;;;;;;;;5056099;28;20289;-63
2022/04/26 15:36:52;;;;;;;5.63;4.90;;;;;;;;;;5056179;28;20182;-63
2022/04/26 15:39:20;;;;;;;7.00;4.30;;;;;;;;;;5056066;28;20183;-63
2022/04/26 15:41:45;;;;;;;6.97;4.67;;;;;;;;;;5038101;28;20266;-64
2022/04/26 15:44:12;;;;;;;4.93;4.43;;;;;;;;;;5055912;28;20237;-63
2022/04/26 15:46:39;;;;;;;7.07;4.13;;;;;;;;;;5055794;28;20189;-63
2022/04/26 15:49:05;;;;;;;6.50;4.67;;;;;;;;;;5055779;28;20177;-63
2022/04/26 15:51:31;;;;;;;5.27;4.47;;;;;;;;;;5037669;28;20178;-63
2022/04/26 15:53:57;;;;;;;6.13;4.63;;;;;;;;;;5055754;28;20202;-63
2022/04/26 15:56:23;;;;;;;6.53;4.30;;;;;;;;;;5055558;28;20235;-63
2022/04/26 15:58:49;;;;;;;4.20;3.80;;;;;;;;;;5055622;28;20217;-63
2022/04/26 16:01:15;;;;;;;5.87;4.80;;;;;;;;;;5055391;28;20647;-63
2022/04/26 16:03:41;;;;;;;5.50;4.40;;;;;;;;;;5055612;28;20348;-63
2022/04/26 16:06:07;;;;;;;7.33;4.37;;;;;;;;;;5055407;28;20179;-63
2022/04/26 16:08:35;;;;;;;4.63;3.83;;;;;;;;;;5055234;28;20179;-63
2022/04/26 16:20:28;;;;;;;5.80;4.17;;;;;;;;;;5055515;28;20231;-63
2022/04/26 16:22:07;;;;;;;5.30;4.30;;;;;;;;;;5055210;28;20669;-63
2022/04/26 16:24:38;;;;;;;5.43;4.43;;;;;;;;;;5054989;28;20690;-63
2022/04/26 16:27:05;;;;;;;6.80;3.80;;;;;;;;;;5054775;28;20706;-62
2022/04/26 16:29:31;;;;;;;4.40;3.70;;;;;;;;;;5037038;28;20206;-63
2022/04/26 16:31:57;;;;;;;5.73;4.30;;;;;;;;;;5055077;28;20181;-63
2022/04/26 16:34:23;;;;;;;5.07;3.90;;;;;;;;;;5055173;28;20273;-63
2022/04/26 16:36:49;;;;;;;5.17;3.80;;;;;;;;;;5055160;28;20654;-63
2022/04/26 16:39:15;;;;;;;4.70;4.20;;;;;;;;;;5054499;28;20700;-63
2022/04/26 16:41:41;;;;;;;4.60;3.83;;;;;;;;;;5054726;28;20178;-63
2022/04/26 16:44:07;;;;;;;4.90;4.17;;;;;;;;;;5054273;28;20221;-62
2022/04/26 16:46:35;;;;;;;7.90;4.57;;;;;;;;;;5055177;28;20254;-63
2022/04/26 16:49:04;;;;;;;6.50;4.13;;;;;;;;;;5054544;28;20200;-62
2022/04/26 16:51:32;;;;;;;4.17;3.80;;;;;;;;;;5054585;28;20178;-63
2022/04/26 16:53:58;;;;;;;5.77;4.80;;;;;;;;;;5054922;28;20222;-62
2022/04/26 16:56:24;;;;;;;6.53;4.37;;;;;;;;;;5036533;28;20689;-61
2022/04/26 16:58:50;;;;;;;5.93;4.67;;;;;;;;;;5054815;28;20664;-62
2022/04/26 17:01:16;;;;;;;5.73;4.40;;;;;;;;;;5054876;28;20186;-62
2022/04/26 17:03:42;;;;;;;7.80;7.03;;;;;;;;;;5036279;28;20219;-62
2022/04/26 17:06:09;;;;;;;10.17;8.40;;;;;;;;;;5054107;28;20315;-62
2022/04/26 17:08:35;;;;;;;6.47;4.90;;;;;;;;;;5054153;28;20530;-63
2022/04/26 17:13:46;;;;;;;4.53;4.13;;;;;;;;;;5054337;28;20587;-63
2022/04/26 17:16:12;;;;;;;5.03;4.23;;;;;;;;;;5036587;28;20186;-63
2022/04/26 17:18:40;;;;;;;5.17;3.93;;;;;;;;;;5054680;28;20190;-60
2022/04/26 17:21:05;;;;;;;5.40;4.00;;;;;;;;;;5055808;28;20264;-63
2022/04/26 17:23:31;;;;;;;4.63;4.10;;;;;;;;;;5054941;28;20202;-61
2022/04/26 17:25:57;;;;;;;6.97;4.23;;;;;;;;;;5054099;28;20184;-61
2022/04/26 17:28:23;;;;;;;5.50;4.20;;;;;;;;;;5053821;28;20174;-61
2022/04/26 17:30:50;;;;;;;4.77;3.30;;;;;;;;;;5053972;28;20261;-62
2022/04/26 17:33:16;;;;;;;4.13;3.77;;;;;;;;;;5053658;28;20182;-61
2022/04/26 17:35:42;;;;;;;4.37;3.97;;;;;;;;;;5053619;28;20209;-61
2022/04/26 17:38:08;;;;;;;6.10;3.60;;;;;;;;;;5036158;28;20183;-62
2022/04/26 17:40:34;;;;;;;4.17;3.77;;;;;;;;;;5054115;28;20618;-62
2022/04/26 17:43:00;;;;;;;6.83;4.20;;;;;;;;;;5035753;28;20670;-61
2022/04/26 17:45:26;;;;;;;4.50;3.93;;;;;;;;;;5053463;28;20218;-61
2022/04/26 17:47:53;;;;;;;5.37;4.03;;;;;;;;;;5053762;28;20178;-61
2022/04/26 17:50:19;;;;;;;5.93;4.03;;;;;;;;;;5053649;28;20265;-61
2022/04/26 17:58:14;;;;;;;6.23;4.07;;;;;;;;;;5053852;28;20177;-61
2022/04/26 18:00:41;;;;;;;4.03;3.63;;;;;;;;;;5035525;28;20182;-61
2022/04/26 18:03:07;;;;;;;4.70;4.30;;;;;;;;;;5053220;28;20230;-61
2022/04/26 18:05:33;;;;;;;5.67;3.97;;;;;;;;;;5053225;28;20232;-62
2022/04/26 18:07:59;;;;;;;4.53;3.80;;;;;;;;;;5053345;28;20171;-63
2022/04/26 18:10:27;;;;;;;5.83;4.27;;;;;;;;;;5053912;28;20174;-62
2022/04/26 18:12:53;;;;;;;7.73;4.53;;;;;;;;;;5035407;28;20182;-61
2022/04/26 18:15:19;;;;;;;4.07;3.53;;;;;;;;;;5035314;28;20206;-62
2022/04/26 18:17:45;;;;;;;4.60;3.57;;;;;;;;;;5053099;28;20204;-62
2022/04/26 18:20:11;;;;;;;3.67;3.37;;;;;;;;;;5053132;28;20253;-62
2022/04/26 18:22:38;;;;;;;4.57;3.60;;;;;;;;;;5053504;28;20202;-62
2022/04/26 18:25:04;;;;;;;3.90;3.50;;;;;;;;;;5053096;28;20252;-62
2022/04/26 18:27:30;;;;;;;3.90;3.50;;;;;;;;;;5035341;28;20316;-62
2022/04/26 18:29:57;;;;;;;7.53;4.20;;;;;;;;;;5053075;28;20178;-62
2022/04/26 18:32:23;;;;;;;4.70;3.63;;;;;;;;;;5053271;28;20549;-61
2022/04/26 18:34:50;;;;;;;5.30;3.63;;;;;;;;;;5053274;28;20226;-61
2022/04/26 18:37:17;;;;;;;5.33;3.53;;;;;;;;;;5035266;28;20232;-61
2022/04/26 18:39:43;;;;;;;5.77;3.83;;;;;;;;;;5053098;28;20166;-61
2022/04/26 18:42:09;;;;;;;5.90;3.73;;;;;;;;;;5053211;28;20175;-63
2022/04/26 18:44:35;;;;;;;7.50;4.13;;;;;;;;;;5052632;28;20245;-62
2022/04/26 18:47:01;;;;;;;4.47;3.60;;;;;;;;;;5053233;28;20649;-62
2022/04/26 18:49:29;;;;;;;7.13;4.03;;;;;;;;;;5055008;28;20182;-62
2022/04/26 18:51:57;;;;;;;6.33;3.90;;;;;;;;;;5039860;28;20197;-62
2022/04/26 18:54:22;;;;;;;5.47;3.63;;;;;;;;;;5056673;28;20201;-62
2022/04/26 18:56:49;;;;;;;5.10;3.80;;;;;;;;;;5056718;28;20554;-62
2022/04/26 18:59:15;;;;;;;6.57;3.43;;;;;;;;;;5057306;28;20179;-61
2022/04/26 19:01:41;;;;;;;3.73;3.33;;;;;;;;;;5056557;28;20185;-61
2022/04/26 19:04:06;;;;;;;4.73;3.40;;;;;;;;;;5056887;28;20242;-61